sensor_id;sensor_type;location;lat;lon;timestamp;P1;durP1;ratioP1;P2;durP2;ratioP2
44750;SDS011;30477;48.224;11.470;2022-12-18T00:01:12;88.03;;;34.65;;
44750;SDS011;30477;48.224;11.470;2022-12-18T00:03:45;83.10;;;33.80;;
44750;SDS011;30477;48.224;11.470;2022-12-18T00:06:13;75.32;;;33.90;;
44750;SDS011;30477;48.224;11.470;2022-12-18T00:08:43;79.30;;;33.08;;
44750;SDS011;30477;48.224;11.470;2022-12-18T00:11:16;80.00;;;32.72;;
44750;SDS011;30477;48.224;11.470;2022-12-18T00:13:44;76.82;;;32.45;;
44750;SDS011;30477;48.224;11.470;2022-12-18T00:16:12;73.57;;;31.27;;
44750;SDS011;30477;48.224;11.470;2022-12-18T00:18:40;71.65;;;31.88;;
44750;SDS011;30477;48.224;11.470;2022-12-18T00:21:07;69.95;;;30.92;;
44750;SDS011;30477;48.224;11.470;2022-12-18T00:23:34;70.57;;;29.58;;
44750;SDS011;30477;48.224;11.470;2022-12-18T00:26:01;73.22;;;31.45;;
44750;SDS011;30477;48.224;11.470;2022-12-18T00:28:30;73.22;;;30.88;;
44750;SDS011;30477;48.224;11.470;2022-12-18T00:31:06;81.22;;;32.75;;
44750;SDS011;30477;48.224;11.470;2022-12-18T00:33:34;84.35;;;33.03;;
44750;SDS011;30477;48.224;11.470;2022-12-18T00:36:02;80.35;;;32.28;;
44750;SDS011;30477;48.224;11.470;2022-12-18T00:38:28;80.55;;;31.30;;
44750;SDS011;30477;48.224;11.470;2022-12-18T00:40:53;75.00;;;32.10;;
44750;SDS011;30477;48.224;11.470;2022-12-18T00:43:18;71.87;;;31.90;;
44750;SDS011;30477;48.224;11.470;2022-12-18T00:45:44;74.40;;;31.03;;
44750;SDS011;30477;48.224;11.470;2022-12-18T00:48:09;70.83;;;28.73;;
44750;SDS011;30477;48.224;11.470;2022-12-18T00:50:34;71.13;;;28.53;;
44750;SDS011;30477;48.224;11.470;2022-12-18T00:52:59;59.80;;;25.57;;
44750;SDS011;30477;48.224;11.470;2022-12-18T00:55:25;71.73;;;28.70;;
44750;SDS011;30477;48.224;11.470;2022-12-18T00:57:51;64.07;;;28.27;;
44750;SDS011;30477;48.224;11.470;2022-12-18T01:00:17;70.10;;;28.45;;
44750;SDS011;30477;48.224;11.470;2022-12-18T01:02:43;64.05;;;25.13;;
44750;SDS011;30477;48.224;11.470;2022-12-18T01:05:09;65.47;;;26.58;;
44750;SDS011;30477;48.224;11.470;2022-12-18T01:07:36;62.95;;;24.60;;
44750;SDS011;30477;48.224;11.470;2022-12-18T01:10:02;66.40;;;27.27;;
44750;SDS011;30477;48.224;11.470;2022-12-18T01:12:28;64.70;;;26.00;;
44750;SDS011;30477;48.224;11.470;2022-12-18T01:14:53;68.00;;;25.93;;
44750;SDS011;30477;48.224;11.470;2022-12-18T01:17:19;68.57;;;27.33;;
44750;SDS011;30477;48.224;11.470;2022-12-18T01:19:44;61.23;;;24.93;;
44750;SDS011;30477;48.224;11.470;2022-12-18T01:22:09;65.83;;;25.67;;
44750;SDS011;30477;48.224;11.470;2022-12-18T01:24:35;68.47;;;25.77;;
44750;SDS011;30477;48.224;11.470;2022-12-18T01:27:00;65.53;;;26.02;;
44750;SDS011;30477;48.224;11.470;2022-12-18T01:29:25;67.30;;;26.03;;
44750;SDS011;30477;48.224;11.470;2022-12-18T01:31:51;70.07;;;26.47;;
44750;SDS011;30477;48.224;11.470;2022-12-18T01:34:19;68.28;;;26.48;;
44750;SDS011;30477;48.224;11.470;2022-12-18T01:36:44;65.50;;;26.17;;
44750;SDS011;30477;48.224;11.470;2022-12-18T01:39:11;68.27;;;27.57;;
44750;SDS011;30477;48.224;11.470;2022-12-18T01:41:38;61.22;;;24.15;;
44750;SDS011;30477;48.224;11.470;2022-12-18T01:47:26;61.90;;;24.33;;
44750;SDS011;30477;48.224;11.470;2022-12-18T01:49:56;61.35;;;25.10;;
44750;SDS011;30477;48.224;11.470;2022-12-18T01:52:22;67.78;;;26.05;;
44750;SDS011;30477;48.224;11.470;2022-12-18T01:54:51;60.55;;;23.42;;
44750;SDS011;30477;48.224;11.470;2022-12-18T01:57:17;69.10;;;25.35;;
44750;SDS011;30477;48.224;11.470;2022-12-18T01:59:43;62.00;;;25.77;;
44750;SDS011;30477;48.224;11.470;2022-12-18T02:02:12;68.22;;;26.10;;
44750;SDS011;30477;48.224;11.470;2022-12-18T02:04:39;64.55;;;26.40;;
44750;SDS011;30477;48.224;11.470;2022-12-18T02:07:14;72.37;;;26.67;;
44750;SDS011;30477;48.224;11.470;2022-12-18T02:10:03;66.28;;;24.92;;
44750;SDS011;30477;48.224;11.470;2022-12-18T02:18:12;62.70;;;24.67;;
44750;SDS011;30477;48.224;11.470;2022-12-18T02:20:58;66.63;;;26.25;;
44750;SDS011;30477;48.224;11.470;2022-12-18T02:28:31;69.65;;;25.67;;
44750;SDS011;30477;48.224;11.470;2022-12-18T02:31:01;68.97;;;26.33;;
44750;SDS011;30477;48.224;11.470;2022-12-18T02:33:31;69.50;;;27.17;;
44750;SDS011;30477;48.224;11.470;2022-12-18T02:35:58;68.60;;;27.77;;
44750;SDS011;30477;48.224;11.470;2022-12-18T02:38:25;68.68;;;27.00;;
44750;SDS011;30477;48.224;11.470;2022-12-18T02:40:54;66.93;;;25.85;;
44750;SDS011;30477;48.224;11.470;2022-12-18T02:43:19;70.63;;;30.90;;
44750;SDS011;30477;48.224;11.470;2022-12-18T02:45:46;79.45;;;29.13;;
44750;SDS011;30477;48.224;11.470;2022-12-18T02:48:14;69.95;;;26.40;;
44750;SDS011;30477;48.224;11.470;2022-12-18T02:50:44;71.35;;;28.10;;
44750;SDS011;30477;48.224;11.470;2022-12-18T02:55:50;70.18;;;28.02;;
44750;SDS011;30477;48.224;11.470;2022-12-18T03:01:09;71.00;;;26.70;;
44750;SDS011;30477;48.224;11.470;2022-12-18T03:03:52;77.95;;;28.88;;
44750;SDS011;30477;48.224;11.470;2022-12-18T03:06:29;68.18;;;28.33;;
44750;SDS011;30477;48.224;11.470;2022-12-18T03:09:02;74.28;;;28.73;;
44750;SDS011;30477;48.224;11.470;2022-12-18T03:11:36;77.10;;;27.98;;
44750;SDS011;30477;48.224;11.470;2022-12-18T03:14:28;73.75;;;28.17;;
44750;SDS011;30477;48.224;11.470;2022-12-18T03:16:57;74.90;;;28.63;;
44750;SDS011;30477;48.224;11.470;2022-12-18T03:19:26;70.82;;;27.70;;
44750;SDS011;30477;48.224;11.470;2022-12-18T03:21:55;70.38;;;28.42;;
44750;SDS011;30477;48.224;11.470;2022-12-18T03:24:22;77.45;;;28.80;;
44750;SDS011;30477;48.224;11.470;2022-12-18T03:26:52;79.20;;;29.92;;
44750;SDS011;30477;48.224;11.470;2022-12-18T03:29:25;82.25;;;29.17;;
44750;SDS011;30477;48.224;11.470;2022-12-18T03:32:00;69.13;;;27.17;;
44750;SDS011;30477;48.224;11.470;2022-12-18T03:34:33;80.00;;;28.90;;
44750;SDS011;30477;48.224;11.470;2022-12-18T03:37:02;71.20;;;27.38;;
44750;SDS011;30477;48.224;11.470;2022-12-18T03:39:30;79.32;;;28.77;;
44750;SDS011;30477;48.224;11.470;2022-12-18T03:47:27;70.28;;;27.17;;
44750;SDS011;30477;48.224;11.470;2022-12-18T03:50:19;72.63;;;27.20;;
44750;SDS011;30477;48.224;11.470;2022-12-18T03:55:13;76.00;;;29.23;;
44750;SDS011;30477;48.224;11.470;2022-12-18T03:57:38;74.68;;;29.27;;
44750;SDS011;30477;48.224;11.470;2022-12-18T04:00:08;74.40;;;28.08;;
44750;SDS011;30477;48.224;11.470;2022-12-18T04:02:37;69.65;;;27.67;;
44750;SDS011;30477;48.224;11.470;2022-12-18T04:05:08;77.72;;;30.70;;
44750;SDS011;30477;48.224;11.470;2022-12-18T04:07:36;72.65;;;28.02;;
44750;SDS011;30477;48.224;11.470;2022-12-18T04:10:05;75.75;;;29.35;;
44750;SDS011;30477;48.224;11.470;2022-12-18T04:12:32;64.90;;;26.27;;
44750;SDS011;30477;48.224;11.470;2022-12-18T04:14:57;68.73;;;26.40;;
44750;SDS011;30477;48.224;11.470;2022-12-18T04:17:22;80.23;;;29.50;;
44750;SDS011;30477;48.224;11.470;2022-12-18T04:19:48;71.97;;;28.73;;
44750;SDS011;30477;48.224;11.470;2022-12-18T04:22:14;70.63;;;27.20;;
44750;SDS011;30477;48.224;11.470;2022-12-18T04:27:06;62.80;;;26.17;;
44750;SDS011;30477;48.224;11.470;2022-12-18T04:29:31;70.53;;;27.73;;
44750;SDS011;30477;48.224;11.470;2022-12-18T04:31:58;73.60;;;29.13;;
44750;SDS011;30477;48.224;11.470;2022-12-18T04:34:24;71.82;;;29.70;;
44750;SDS011;30477;48.224;11.470;2022-12-18T04:36:49;73.30;;;27.50;;
44750;SDS011;30477;48.224;11.470;2022-12-18T04:39:14;76.30;;;29.13;;
44750;SDS011;30477;48.224;11.470;2022-12-18T04:41:40;70.90;;;26.30;;
44750;SDS011;30477;48.224;11.470;2022-12-18T04:44:06;69.57;;;26.65;;
44750;SDS011;30477;48.224;11.470;2022-12-18T04:46:31;61.97;;;24.67;;
44750;SDS011;30477;48.224;11.470;2022-12-18T04:48:57;64.50;;;25.37;;
44750;SDS011;30477;48.224;11.470;2022-12-18T04:51:22;66.63;;;27.00;;
44750;SDS011;30477;48.224;11.470;2022-12-18T04:53:47;65.63;;;25.73;;
44750;SDS011;30477;48.224;11.470;2022-12-18T04:56:13;62.57;;;23.07;;
44750;SDS011;30477;48.224;11.470;2022-12-18T04:58:40;66.15;;;24.52;;
44750;SDS011;30477;48.224;11.470;2022-12-18T05:01:07;68.47;;;26.23;;
44750;SDS011;30477;48.224;11.470;2022-12-18T05:03:34;64.00;;;24.80;;
44750;SDS011;30477;48.224;11.470;2022-12-18T05:06:00;61.05;;;25.05;;
44750;SDS011;30477;48.224;11.470;2022-12-18T05:08:25;66.33;;;24.83;;
44750;SDS011;30477;48.224;11.470;2022-12-18T05:11:07;64.68;;;24.98;;
44750;SDS011;30477;48.224;11.470;2022-12-18T05:13:35;63.15;;;25.55;;
44750;SDS011;30477;48.224;11.470;2022-12-18T05:16:00;63.95;;;25.10;;
44750;SDS011;30477;48.224;11.470;2022-12-18T05:18:26;65.27;;;25.90;;
44750;SDS011;30477;48.224;11.470;2022-12-18T05:20:52;61.85;;;23.23;;
44750;SDS011;30477;48.224;11.470;2022-12-18T05:23:18;60.75;;;23.95;;
44750;SDS011;30477;48.224;11.470;2022-12-18T05:25:51;62.55;;;24.98;;
44750;SDS011;30477;48.224;11.470;2022-12-18T05:28:17;62.40;;;24.65;;
44750;SDS011;30477;48.224;11.470;2022-12-18T05:30:42;60.77;;;22.93;;
44750;SDS011;30477;48.224;11.470;2022-12-18T05:33:07;58.33;;;23.57;;
44750;SDS011;30477;48.224;11.470;2022-12-18T05:35:33;58.67;;;22.02;;
44750;SDS011;30477;48.224;11.470;2022-12-18T05:37:58;56.57;;;22.73;;
44750;SDS011;30477;48.224;11.470;2022-12-18T05:40:23;61.77;;;24.07;;
44750;SDS011;30477;48.224;11.470;2022-12-18T05:42:49;68.50;;;26.37;;
44750;SDS011;30477;48.224;11.470;2022-12-18T05:45:14;55.67;;;23.33;;
44750;SDS011;30477;48.224;11.470;2022-12-18T05:47:39;66.40;;;23.47;;
44750;SDS011;30477;48.224;11.470;2022-12-18T05:50:05;63.10;;;23.47;;
44750;SDS011;30477;48.224;11.470;2022-12-18T05:52:31;63.53;;;25.02;;
44750;SDS011;30477;48.224;11.470;2022-12-18T05:54:57;57.23;;;24.73;;
44750;SDS011;30477;48.224;11.470;2022-12-18T05:57:23;60.08;;;24.73;;
44750;SDS011;30477;48.224;11.470;2022-12-18T05:59:49;62.72;;;23.30;;
44750;SDS011;30477;48.224;11.470;2022-12-18T06:02:14;58.60;;;24.13;;
44750;SDS011;30477;48.224;11.470;2022-12-18T06:04:40;57.57;;;22.23;;
44750;SDS011;30477;48.224;11.470;2022-12-18T06:07:05;55.37;;;23.97;;
44750;SDS011;30477;48.224;11.470;2022-12-18T06:09:30;59.38;;;23.50;;
44750;SDS011;30477;48.224;11.470;2022-12-18T06:14:22;57.10;;;23.57;;
44750;SDS011;30477;48.224;11.470;2022-12-18T06:16:47;62.37;;;24.00;;
44750;SDS011;30477;48.224;11.470;2022-12-18T06:19:16;55.90;;;23.00;;
44750;SDS011;30477;48.224;11.470;2022-12-18T06:21:41;64.40;;;25.13;;
44750;SDS011;30477;48.224;11.470;2022-12-18T06:24:07;55.30;;;21.43;;
44750;SDS011;30477;48.224;11.470;2022-12-18T06:26:32;57.08;;;24.58;;
44750;SDS011;30477;48.224;11.470;2022-12-18T06:28:57;60.50;;;24.43;;
44750;SDS011;30477;48.224;11.470;2022-12-18T06:31:23;59.05;;;23.88;;
44750;SDS011;30477;48.224;11.470;2022-12-18T06:33:49;60.85;;;25.23;;
44750;SDS011;30477;48.224;11.470;2022-12-18T06:36:14;57.60;;;25.15;;
44750;SDS011;30477;48.224;11.470;2022-12-18T06:38:41;57.13;;;24.10;;
44750;SDS011;30477;48.224;11.470;2022-12-18T06:41:08;60.72;;;23.85;;
44750;SDS011;30477;48.224;11.470;2022-12-18T06:43:34;53.33;;;22.42;;
44750;SDS011;30477;48.224;11.470;2022-12-18T06:46:00;56.53;;;23.97;;
44750;SDS011;30477;48.224;11.470;2022-12-18T06:48:26;59.83;;;24.10;;
44750;SDS011;30477;48.224;11.470;2022-12-18T06:50:51;59.63;;;24.73;;
44750;SDS011;30477;48.224;11.470;2022-12-18T06:53:17;59.63;;;23.63;;
44750;SDS011;30477;48.224;11.470;2022-12-18T06:55:42;60.47;;;24.00;;
44750;SDS011;30477;48.224;11.470;2022-12-18T06:58:08;56.53;;;23.98;;
44750;SDS011;30477;48.224;11.470;2022-12-18T07:00:33;62.10;;;23.60;;
44750;SDS011;30477;48.224;11.470;2022-12-18T07:02:58;58.53;;;24.57;;
44750;SDS011;30477;48.224;11.470;2022-12-18T07:05:24;58.50;;;23.93;;
44750;SDS011;30477;48.224;11.470;2022-12-18T07:07:49;52.58;;;22.85;;
44750;SDS011;30477;48.224;11.470;2022-12-18T07:10:15;61.50;;;25.37;;
44750;SDS011;30477;48.224;11.470;2022-12-18T07:12:40;63.80;;;26.35;;
44750;SDS011;30477;48.224;11.470;2022-12-18T07:15:06;63.35;;;23.92;;
44750;SDS011;30477;48.224;11.470;2022-12-18T07:17:32;59.90;;;24.02;;
44750;SDS011;30477;48.224;11.470;2022-12-18T07:19:57;56.73;;;24.90;;
44750;SDS011;30477;48.224;11.470;2022-12-18T07:22:23;64.35;;;25.58;;
44750;SDS011;30477;48.224;11.470;2022-12-18T07:24:50;66.18;;;25.73;;
44750;SDS011;30477;48.224;11.470;2022-12-18T07:27:16;64.00;;;24.03;;
44750;SDS011;30477;48.224;11.470;2022-12-18T07:29:41;62.42;;;24.77;;
44750;SDS011;30477;48.224;11.470;2022-12-18T07:32:06;62.83;;;25.03;;
44750;SDS011;30477;48.224;11.470;2022-12-18T07:34:32;58.60;;;24.63;;
44750;SDS011;30477;48.224;11.470;2022-12-18T07:36:57;61.78;;;24.48;;
44750;SDS011;30477;48.224;11.470;2022-12-18T07:39:23;65.70;;;26.67;;
44750;SDS011;30477;48.224;11.470;2022-12-18T07:41:48;63.87;;;24.33;;
44750;SDS011;30477;48.224;11.470;2022-12-18T07:44:33;61.17;;;25.63;;
44750;SDS011;30477;48.224;11.470;2022-12-18T07:46:59;57.93;;;24.23;;
44750;SDS011;30477;48.224;11.470;2022-12-18T07:49:24;62.07;;;24.97;;
44750;SDS011;30477;48.224;11.470;2022-12-18T07:51:49;60.33;;;24.10;;
44750;SDS011;30477;48.224;11.470;2022-12-18T07:54:15;54.27;;;23.73;;
44750;SDS011;30477;48.224;11.470;2022-12-18T07:56:40;57.25;;;23.35;;
44750;SDS011;30477;48.224;11.470;2022-12-18T07:59:06;54.07;;;23.30;;
44750;SDS011;30477;48.224;11.470;2022-12-18T08:01:33;60.08;;;23.90;;
44750;SDS011;30477;48.224;11.470;2022-12-18T08:03:58;63.30;;;24.30;;
44750;SDS011;30477;48.224;11.470;2022-12-18T08:06:24;61.13;;;24.15;;
44750;SDS011;30477;48.224;11.470;2022-12-18T08:08:53;59.97;;;26.20;;
44750;SDS011;30477;48.224;11.470;2022-12-18T08:11:19;59.90;;;23.15;;
44750;SDS011;30477;48.224;11.470;2022-12-18T08:13:44;59.07;;;24.40;;
44750;SDS011;30477;48.224;11.470;2022-12-18T08:16:10;62.80;;;24.10;;
44750;SDS011;30477;48.224;11.470;2022-12-18T08:18:36;57.30;;;23.53;;
44750;SDS011;30477;48.224;11.470;2022-12-18T08:21:09;54.45;;;22.88;;
44750;SDS011;30477;48.224;11.470;2022-12-18T08:23:34;50.40;;;21.95;;
44750;SDS011;30477;48.224;11.470;2022-12-18T08:26:00;52.88;;;22.33;;
44750;SDS011;30477;48.224;11.470;2022-12-18T08:28:26;57.13;;;23.60;;
44750;SDS011;30477;48.224;11.470;2022-12-18T08:30:51;52.33;;;22.60;;
44750;SDS011;30477;48.224;11.470;2022-12-18T08:33:17;53.80;;;21.92;;
44750;SDS011;30477;48.224;11.470;2022-12-18T08:35:42;50.83;;;21.50;;
44750;SDS011;30477;48.224;11.470;2022-12-18T08:38:07;57.23;;;22.73;;
44750;SDS011;30477;48.224;11.470;2022-12-18T08:40:33;55.42;;;23.20;;
44750;SDS011;30477;48.224;11.470;2022-12-18T08:42:58;53.40;;;23.70;;
44750;SDS011;30477;48.224;11.470;2022-12-18T08:45:42;56.08;;;22.75;;
44750;SDS011;30477;48.224;11.470;2022-12-18T08:48:08;51.70;;;22.27;;
44750;SDS011;30477;48.224;11.470;2022-12-18T08:50:33;58.75;;;23.40;;
44750;SDS011;30477;48.224;11.470;2022-12-18T08:53:00;57.28;;;23.15;;
44750;SDS011;30477;48.224;11.470;2022-12-18T08:55:25;50.55;;;22.85;;
44750;SDS011;30477;48.224;11.470;2022-12-18T08:57:51;53.77;;;23.13;;
44750;SDS011;30477;48.224;11.470;2022-12-18T09:00:16;55.60;;;22.97;;
44750;SDS011;30477;48.224;11.470;2022-12-18T09:02:42;56.78;;;23.10;;
44750;SDS011;30477;48.224;11.470;2022-12-18T09:05:07;56.80;;;22.42;;
44750;SDS011;30477;48.224;11.470;2022-12-18T09:07:33;54.60;;;22.67;;
44750;SDS011;30477;48.224;11.470;2022-12-18T09:09:59;50.33;;;22.40;;
44750;SDS011;30477;48.224;11.470;2022-12-18T09:12:25;53.63;;;23.10;;
44750;SDS011;30477;48.224;11.470;2022-12-18T09:14:50;50.35;;;22.17;;
44750;SDS011;30477;48.224;11.470;2022-12-18T09:17:16;53.92;;;23.17;;
44750;SDS011;30477;48.224;11.470;2022-12-18T09:19:41;52.50;;;22.87;;
44750;SDS011;30477;48.224;11.470;2022-12-18T09:22:06;54.13;;;22.02;;
44750;SDS011;30477;48.224;11.470;2022-12-18T09:24:32;54.67;;;22.57;;
44750;SDS011;30477;48.224;11.470;2022-12-18T09:26:57;48.20;;;21.05;;
44750;SDS011;30477;48.224;11.470;2022-12-18T09:29:22;57.50;;;23.27;;
44750;SDS011;30477;48.224;11.470;2022-12-18T09:31:48;59.57;;;23.20;;
44750;SDS011;30477;48.224;11.470;2022-12-18T09:36:39;51.53;;;20.38;;
44750;SDS011;30477;48.224;11.470;2022-12-18T09:39:05;57.50;;;22.57;;
44750;SDS011;30477;48.224;11.470;2022-12-18T09:41:37;52.10;;;21.55;;
44750;SDS011;30477;48.224;11.470;2022-12-18T09:46:46;54.55;;;22.08;;
44750;SDS011;30477;48.224;11.470;2022-12-18T09:49:16;58.42;;;23.58;;
44750;SDS011;30477;48.224;11.470;2022-12-18T09:51:47;51.67;;;21.67;;
44750;SDS011;30477;48.224;11.470;2022-12-18T09:54:22;55.30;;;21.00;;
44750;SDS011;30477;48.224;11.470;2022-12-18T09:56:51;49.63;;;22.15;;
44750;SDS011;30477;48.224;11.470;2022-12-18T10:01:48;48.70;;;19.65;;
44750;SDS011;30477;48.224;11.470;2022-12-18T10:04:14;49.47;;;21.20;;
44750;SDS011;30477;48.224;11.470;2022-12-18T10:06:45;52.92;;;21.58;;
44750;SDS011;30477;48.224;11.470;2022-12-18T10:14:34;52.53;;;21.75;;
44750;SDS011;30477;48.224;11.470;2022-12-18T10:25:41;50.75;;;21.85;;
44750;SDS011;30477;48.224;11.470;2022-12-18T10:28:27;45.10;;;20.13;;
44750;SDS011;30477;48.224;11.470;2022-12-18T10:30:55;44.30;;;20.67;;
44750;SDS011;30477;48.224;11.470;2022-12-18T10:33:22;49.73;;;22.27;;
44750;SDS011;30477;48.224;11.470;2022-12-18T10:35:49;50.28;;;20.23;;
44750;SDS011;30477;48.224;11.470;2022-12-18T10:43:19;48.92;;;22.10;;
44750;SDS011;30477;48.224;11.470;2022-12-18T10:48:34;54.25;;;22.70;;
44750;SDS011;30477;48.224;11.470;2022-12-18T10:51:04;48.92;;;21.52;;
44750;SDS011;30477;48.224;11.470;2022-12-18T10:53:31;52.85;;;22.58;;
44750;SDS011;30477;48.224;11.470;2022-12-18T10:55:59;51.38;;;22.05;;
44750;SDS011;30477;48.224;11.470;2022-12-18T10:58:26;52.53;;;23.23;;
44750;SDS011;30477;48.224;11.470;2022-12-18T11:04:13;54.47;;;23.60;;
44750;SDS011;30477;48.224;11.470;2022-12-18T11:08:42;64.55;;;25.73;;
44750;SDS011;30477;48.224;11.470;2022-12-18T11:11:19;56.78;;;25.33;;
44750;SDS011;30477;48.224;11.470;2022-12-18T11:16:20;50.95;;;21.48;;
44750;SDS011;30477;48.224;11.470;2022-12-18T11:18:46;51.13;;;22.83;;
44750;SDS011;30477;48.224;11.470;2022-12-18T11:21:11;66.07;;;27.77;;
44750;SDS011;30477;48.224;11.470;2022-12-18T11:23:44;62.20;;;26.95;;
44750;SDS011;30477;48.224;11.470;2022-12-18T11:26:14;61.20;;;27.37;;
44750;SDS011;30477;48.224;11.470;2022-12-18T11:31:22;43.28;;;19.42;;
44750;SDS011;30477;48.224;11.470;2022-12-18T11:36:51;53.60;;;24.02;;
44750;SDS011;30477;48.224;11.470;2022-12-18T11:39:18;55.85;;;24.05;;
44750;SDS011;30477;48.224;11.470;2022-12-18T11:50:00;54.72;;;24.83;;
44750;SDS011;30477;48.224;11.470;2022-12-18T11:52:30;61.35;;;25.20;;
44750;SDS011;30477;48.224;11.470;2022-12-18T11:55:04;53.22;;;23.00;;
44750;SDS011;30477;48.224;11.470;2022-12-18T12:00:07;50.30;;;21.20;;
44750;SDS011;30477;48.224;11.470;2022-12-18T12:16:16;47.05;;;20.55;;
44750;SDS011;30477;48.224;11.470;2022-12-18T12:18:49;47.20;;;21.25;;
44750;SDS011;30477;48.224;11.470;2022-12-18T12:32:05;43.28;;;20.33;;
44750;SDS011;30477;48.224;11.470;2022-12-18T12:37:22;43.63;;;20.63;;
44750;SDS011;30477;48.224;11.470;2022-12-18T12:39:58;45.63;;;20.20;;
44750;SDS011;30477;48.224;11.470;2022-12-18T12:45:26;43.55;;;19.88;;
44750;SDS011;30477;48.224;11.470;2022-12-18T12:47:57;49.30;;;20.60;;
44750;SDS011;30477;48.224;11.470;2022-12-18T12:50:27;41.95;;;20.30;;
44750;SDS011;30477;48.224;11.470;2022-12-18T12:52:53;46.58;;;20.02;;
44750;SDS011;30477;48.224;11.470;2022-12-18T12:55:25;44.25;;;19.95;;
44750;SDS011;30477;48.224;11.470;2022-12-18T12:57:55;42.58;;;19.02;;
44750;SDS011;30477;48.224;11.470;2022-12-18T13:00:30;42.10;;;18.80;;
44750;SDS011;30477;48.224;11.470;2022-12-18T13:05:45;42.05;;;20.02;;
44750;SDS011;30477;48.224;11.470;2022-12-18T13:08:30;40.75;;;19.05;;
44750;SDS011;30477;48.224;11.470;2022-12-18T13:10:57;38.45;;;18.58;;
44750;SDS011;30477;48.224;11.470;2022-12-18T13:13:53;37.25;;;17.27;;
44750;SDS011;30477;48.224;11.470;2022-12-18T13:16:21;39.75;;;19.27;;
44750;SDS011;30477;48.224;11.470;2022-12-18T13:18:52;44.47;;;19.40;;
44750;SDS011;30477;48.224;11.470;2022-12-18T13:21:29;42.72;;;19.48;;
44750;SDS011;30477;48.224;11.470;2022-12-18T13:23:57;46.90;;;20.95;;
44750;SDS011;30477;48.224;11.470;2022-12-18T13:26:41;43.65;;;19.42;;
44750;SDS011;30477;48.224;11.470;2022-12-18T13:29:06;45.93;;;19.97;;
44750;SDS011;30477;48.224;11.470;2022-12-18T13:34:19;42.65;;;19.67;;
44750;SDS011;30477;48.224;11.470;2022-12-18T13:36:46;46.70;;;21.13;;
44750;SDS011;30477;48.224;11.470;2022-12-18T13:41:43;41.20;;;19.05;;
44750;SDS011;30477;48.224;11.470;2022-12-18T13:46:43;50.20;;;21.87;;
44750;SDS011;30477;48.224;11.470;2022-12-18T13:51:38;46.97;;;20.98;;
44750;SDS011;30477;48.224;11.470;2022-12-18T13:54:17;47.05;;;20.63;;
44750;SDS011;30477;48.224;11.470;2022-12-18T13:56:44;44.22;;;19.10;;
44750;SDS011;30477;48.224;11.470;2022-12-18T13:59:15;44.22;;;20.38;;
44750;SDS011;30477;48.224;11.470;2022-12-18T14:01:44;43.40;;;20.67;;
44750;SDS011;30477;48.224;11.470;2022-12-18T14:04:12;51.30;;;22.42;;
44750;SDS011;30477;48.224;11.470;2022-12-18T14:06:43;49.08;;;20.63;;
44750;SDS011;30477;48.224;11.470;2022-12-18T14:09:12;51.00;;;22.35;;
44750;SDS011;30477;48.224;11.470;2022-12-18T14:11:48;45.22;;;21.45;;
44750;SDS011;30477;48.224;11.470;2022-12-18T14:14:16;46.28;;;21.08;;
44750;SDS011;30477;48.224;11.470;2022-12-18T14:16:42;44.90;;;21.50;;
44750;SDS011;30477;48.224;11.470;2022-12-18T14:19:11;50.38;;;19.85;;
44750;SDS011;30477;48.224;11.470;2022-12-18T14:21:40;51.35;;;21.35;;
44750;SDS011;30477;48.224;11.470;2022-12-18T14:24:13;49.97;;;21.05;;
44750;SDS011;30477;48.224;11.470;2022-12-18T14:26:40;47.40;;;20.38;;
44750;SDS011;30477;48.224;11.470;2022-12-18T14:31:46;45.00;;;20.83;;
44750;SDS011;30477;48.224;11.470;2022-12-18T14:34:28;48.65;;;21.17;;
44750;SDS011;30477;48.224;11.470;2022-12-18T14:36:53;44.70;;;19.40;;
44750;SDS011;30477;48.224;11.470;2022-12-18T14:39:21;47.58;;;20.35;;
44750;SDS011;30477;48.224;11.470;2022-12-18T14:41:48;44.67;;;19.23;;
44750;SDS011;30477;48.224;11.470;2022-12-18T14:44:14;46.42;;;19.73;;
44750;SDS011;30477;48.224;11.470;2022-12-18T14:46:44;40.40;;;19.87;;
44750;SDS011;30477;48.224;11.470;2022-12-18T14:51:57;45.72;;;20.55;;
44750;SDS011;30477;48.224;11.470;2022-12-18T14:54:47;47.38;;;20.52;;
44750;SDS011;30477;48.224;11.470;2022-12-18T15:00:03;51.47;;;22.65;;
44750;SDS011;30477;48.224;11.470;2022-12-18T15:02:30;47.70;;;22.13;;
44750;SDS011;30477;48.224;11.470;2022-12-18T15:05:03;44.08;;;21.50;;
44750;SDS011;30477;48.224;11.470;2022-12-18T15:10:12;48.00;;;22.52;;
44750;SDS011;30477;48.224;11.470;2022-12-18T15:18:19;47.85;;;21.95;;
44750;SDS011;30477;48.224;11.470;2022-12-18T15:20:48;48.38;;;22.45;;
44750;SDS011;30477;48.224;11.470;2022-12-18T15:26:14;49.60;;;22.08;;
44750;SDS011;30477;48.224;11.470;2022-12-18T15:36:11;49.25;;;21.95;;
44750;SDS011;30477;48.224;11.470;2022-12-18T15:38:38;52.00;;;23.58;;
44750;SDS011;30477;48.224;11.470;2022-12-18T15:41:03;51.78;;;23.25;;
44750;SDS011;30477;48.224;11.470;2022-12-18T15:43:29;49.83;;;22.80;;
44750;SDS011;30477;48.224;11.470;2022-12-18T15:46:21;55.85;;;24.35;;
44750;SDS011;30477;48.224;11.470;2022-12-18T15:51:21;49.90;;;22.33;;
44750;SDS011;30477;48.224;11.470;2022-12-18T15:53:50;48.47;;;22.15;;
44750;SDS011;30477;48.224;11.470;2022-12-18T15:56:19;54.63;;;23.20;;
44750;SDS011;30477;48.224;11.470;2022-12-18T15:59:23;54.28;;;23.35;;
44750;SDS011;30477;48.224;11.470;2022-12-18T16:01:49;55.23;;;24.43;;
44750;SDS011;30477;48.224;11.470;2022-12-18T16:04:18;58.72;;;25.63;;
44750;SDS011;30477;48.224;11.470;2022-12-18T16:06:45;56.25;;;25.02;;
44750;SDS011;30477;48.224;11.470;2022-12-18T16:09:11;58.42;;;25.48;;
44750;SDS011;30477;48.224;11.470;2022-12-18T16:11:37;53.00;;;24.70;;
44750;SDS011;30477;48.224;11.470;2022-12-18T16:16:41;57.30;;;26.23;;
44750;SDS011;30477;48.224;11.470;2022-12-18T16:19:06;55.53;;;24.17;;
44750;SDS011;30477;48.224;11.470;2022-12-18T16:21:32;51.70;;;23.58;;
44750;SDS011;30477;48.224;11.470;2022-12-18T16:23:57;60.50;;;26.17;;
44750;SDS011;30477;48.224;11.470;2022-12-18T16:26:23;57.23;;;26.30;;
44750;SDS011;30477;48.224;11.470;2022-12-18T16:28:48;57.60;;;24.77;;
44750;SDS011;30477;48.224;11.470;2022-12-18T16:31:13;54.57;;;24.90;;
44750;SDS011;30477;48.224;11.470;2022-12-18T16:33:39;54.17;;;25.40;;
44750;SDS011;30477;48.224;11.470;2022-12-18T16:36:05;52.30;;;23.67;;
44750;SDS011;30477;48.224;11.470;2022-12-18T16:38:30;52.35;;;23.17;;
44750;SDS011;30477;48.224;11.470;2022-12-18T16:40:55;55.47;;;25.03;;
44750;SDS011;30477;48.224;11.470;2022-12-18T16:43:39;54.30;;;23.80;;
44750;SDS011;30477;48.224;11.470;2022-12-18T16:46:05;51.13;;;22.93;;
44750;SDS011;30477;48.224;11.470;2022-12-18T16:48:30;56.05;;;24.33;;
44750;SDS011;30477;48.224;11.470;2022-12-18T16:51:02;52.57;;;23.17;;
44750;SDS011;30477;48.224;11.470;2022-12-18T16:53:28;59.10;;;25.20;;
44750;SDS011;30477;48.224;11.470;2022-12-18T16:55:54;55.40;;;24.10;;